sensor_id;sensor_type;location;lat;lon;timestamp;temperature;humidity
2851;DHT22;1433;49.976;8.342;2023-12-20T00:00:09;5.10;99.90
2851;DHT22;1433;49.976;8.342;2023-12-20T00:02:35;5.10;99.90
2851;DHT22;1433;49.976;8.342;2023-12-20T00:05:01;5.10;99.90
2851;DHT22;1433;49.976;8.342;2023-12-20T00:07:28;5.10;99.90
2851;DHT22;1433;49.976;8.342;2023-12-20T00:09:56;5.00;99.90
2851;DHT22;1433;49.976;8.342;2023-12-20T00:12:22;5.10;99.90
2851;DHT22;1433;49.976;8.342;2023-12-20T00:14:48;5.00;99.90
2851;DHT22;1433;49.976;8.342;2023-12-20T00:17:15;5.10;99.90
2851;DHT22;1433;49.976;8.342;2023-12-20T00:19:41;5.00;99.90
2851;DHT22;1433;49.976;8.342;2023-12-20T00:22:07;5.00;99.90
2851;DHT22;1433;49.976;8.342;2023-12-20T00:24:33;5.00;99.90
2851;DHT22;1433;49.976;8.342;2023-12-20T00:26:59;5.00;99.90
2851;DHT22;1433;49.976;8.342;2023-12-20T00:29:26;5.00;99.90
2851;DHT22;1433;49.976;8.342;2023-12-20T00:31:52;5.00;99.90
2851;DHT22;1433;49.976;8.342;2023-12-20T00:34:18;5.00;99.90
2851;DHT22;1433;49.976;8.342;2023-12-20T00:36:44;5.00;99.90
2851;DHT22;1433;49.976;8.342;2023-12-20T00:39:10;5.00;99.90
2851;DHT22;1433;49.976;8.342;2023-12-20T00:41:36;5.00;99.90
2851;DHT22;1433;49.976;8.342;2023-12-20T00:44:03;5.00;99.90
2851;DHT22;1433;49.976;8.342;2023-12-20T00:46:29;5.10;99.90
2851;DHT22;1433;49.976;8.342;2023-12-20T00:48:55;5.00;99.90
2851;DHT22;1433;49.976;8.342;2023-12-20T00:51:22;5.00;99.90
2851;DHT22;1433;49.976;8.342;2023-12-20T00:53:50;5.00;99.90
2851;DHT22;1433;49.976;8.342;2023-12-20T00:56:18;5.00;99.90
2851;DHT22;1433;49.976;8.342;2023-12-20T00:58:45;5.00;99.90
2851;DHT22;1433;49.976;8.342;2023-12-20T01:01:11;5.00;99.90
2851;DHT22;1433;49.976;8.342;2023-12-20T01:03:38;5.00;99.90
2851;DHT22;1433;49.976;8.342;2023-12-20T01:06:05;5.00;99.90
2851;DHT22;1433;49.976;8.342;2023-12-20T01:08:34;5.00;99.90
2851;DHT22;1433;49.976;8.342;2023-12-20T01:11:06;5.00;99.90
2851;DHT22;1433;49.976;8.342;2023-12-20T01:13:32;5.00;99.90
2851;DHT22;1433;49.976;8.342;2023-12-20T01:15:58;5.00;99.90
2851;DHT22;1433;49.976;8.342;2023-12-20T01:18:24;5.00;99.90
2851;DHT22;1433;49.976;8.342;2023-12-20T01:20:50;5.00;99.90
2851;DHT22;1433;49.976;8.342;2023-12-20T01:23:17;5.00;99.90
2851;DHT22;1433;49.976;8.342;2023-12-20T01:25:43;5.10;99.90
2851;DHT22;1433;49.976;8.342;2023-12-20T01:28:09;5.10;99.90
2851;DHT22;1433;49.976;8.342;2023-12-20T01:30:35;5.10;99.90
2851;DHT22;1433;49.976;8.342;2023-12-20T01:33:01;5.10;99.90
2851;DHT22;1433;49.976;8.342;2023-12-20T01:35:27;5.10;99.90
2851;DHT22;1433;49.976;8.342;2023-12-20T01:37:55;5.10;99.90
2851;DHT22;1433;49.976;8.342;2023-12-20T01:40:23;5.10;99.90
2851;DHT22;1433;49.976;8.342;2023-12-20T01:43:01;5.10;99.90
2851;DHT22;1433;49.976;8.342;2023-12-20T01:45:27;5.10;99.90
2851;DHT22;1433;49.976;8.342;2023-12-20T01:47:55;5.10;99.90
2851;DHT22;1433;49.976;8.342;2023-12-20T01:50:21;5.10;99.90
2851;DHT22;1433;49.976;8.342;2023-12-20T01:52:48;5.10;99.90
2851;DHT22;1433;49.976;8.342;2023-12-20T01:55:15;5.20;99.90
2851;DHT22;1433;49.976;8.342;2023-12-20T01:57:42;5.20;99.90
2851;DHT22;1433;49.976;8.342;2023-12-20T02:00:09;5.20;99.90
2851;DHT22;1433;49.976;8.342;2023-12-20T02:02:39;5.20;99.90
2851;DHT22;1433;49.976;8.342;2023-12-20T02:05:06;5.20;99.90
2851;DHT22;1433;49.976;8.342;2023-12-20T02:07:32;5.20;99.90
2851;DHT22;1433;49.976;8.342;2023-12-20T02:10:04;5.20;99.90
2851;DHT22;1433;49.976;8.342;2023-12-20T02:12:30;5.20;99.90
2851;DHT22;1433;49.976;8.342;2023-12-20T02:14:56;5.20;99.90
2851;DHT22;1433;49.976;8.342;2023-12-20T02:17:23;5.20;99.90
2851;DHT22;1433;49.976;8.342;2023-12-20T02:19:49;5.20;99.90
2851;DHT22;1433;49.976;8.342;2023-12-20T02:22:15;5.20;99.90
2851;DHT22;1433;49.976;8.342;2023-12-20T02:24:42;5.20;99.90
2851;DHT22;1433;49.976;8.342;2023-12-20T02:27:08;5.20;99.90
2851;DHT22;1433;49.976;8.342;2023-12-20T02:29:34;5.20;99.90
2851;DHT22;1433;49.976;8.342;2023-12-20T02:32:01;5.20;99.90
2851;DHT22;1433;49.976;8.342;2023-12-20T02:34:28;5.20;99.90
2851;DHT22;1433;49.976;8.342;2023-12-20T02:36:55;5.20;99.90
2851;DHT22;1433;49.976;8.342;2023-12-20T02:39:22;5.20;99.90
2851;DHT22;1433;49.976;8.342;2023-12-20T02:41:48;5.20;99.90
2851;DHT22;1433;49.976;8.342;2023-12-20T02:44:14;5.20;99.90
2851;DHT22;1433;49.976;8.342;2023-12-20T02:46:51;5.20;99.90
2851;DHT22;1433;49.976;8.342;2023-12-20T02:49:17;5.20;99.90
2851;DHT22;1433;49.976;8.342;2023-12-20T02:51:44;5.20;99.90
2851;DHT22;1433;49.976;8.342;2023-12-20T02:54:10;5.30;99.90
2851;DHT22;1433;49.976;8.342;2023-12-20T02:56:36;5.30;99.90
2851;DHT22;1433;49.976;8.342;2023-12-20T02:59:02;5.30;99.90
2851;DHT22;1433;49.976;8.342;2023-12-20T03:01:30;5.30;99.90
2851;DHT22;1433;49.976;8.342;2023-12-20T03:03:56;5.40;99.90
2851;DHT22;1433;49.976;8.342;2023-12-20T03:06:23;5.40;99.90
2851;DHT22;1433;49.976;8.342;2023-12-20T03:08:49;5.40;99.90
2851;DHT22;1433;49.976;8.342;2023-12-20T03:11:15;5.50;99.90
2851;DHT22;1433;49.976;8.342;2023-12-20T03:13:41;5.50;99.90
2851;DHT22;1433;49.976;8.342;2023-12-20T03:16:11;5.50;99.90
2851;DHT22;1433;49.976;8.342;2023-12-20T03:18:38;5.50;99.90
2851;DHT22;1433;49.976;8.342;2023-12-20T03:21:05;5.50;99.90
2851;DHT22;1433;49.976;8.342;2023-12-20T03:23:31;5.60;99.90
2851;DHT22;1433;49.976;8.342;2023-12-20T03:26:00;5.60;99.90
2851;DHT22;1433;49.976;8.342;2023-12-20T03:28:27;5.60;99.90
2851;DHT22;1433;49.976;8.342;2023-12-20T03:30:53;5.60;99.90
2851;DHT22;1433;49.976;8.342;2023-12-20T03:33:20;5.60;99.90
2851;DHT22;1433;49.976;8.342;2023-12-20T03:35:46;5.60;99.90
2851;DHT22;1433;49.976;8.342;2023-12-20T03:38:12;5.60;99.90
2851;DHT22;1433;49.976;8.342;2023-12-20T03:40:38;5.60;99.90
2851;DHT22;1433;49.976;8.342;2023-12-20T03:43:05;5.60;99.90
2851;DHT22;1433;49.976;8.342;2023-12-20T03:45:31;5.60;99.90
2851;DHT22;1433;49.976;8.342;2023-12-20T03:47:57;5.60;99.90
2851;DHT22;1433;49.976;8.342;2023-12-20T03:50:23;5.60;99.90
2851;DHT22;1433;49.976;8.342;2023-12-20T03:52:49;5.70;99.90
2851;DHT22;1433;49.976;8.342;2023-12-20T03:55:16;5.70;99.90
2851;DHT22;1433;49.976;8.342;2023-12-20T03:57:42;5.70;99.90
2851;DHT22;1433;49.976;8.342;2023-12-20T04:00:09;5.70;99.90
2851;DHT22;1433;49.976;8.342;2023-12-20T04:02:39;5.80;99.90
2851;DHT22;1433;49.976;8.342;2023-12-20T04:05:06;5.80;99.90
2851;DHT22;1433;49.976;8.342;2023-12-20T04:07:33;5.90;99.90
2851;DHT22;1433;49.976;8.342;2023-12-20T04:10:00;5.90;99.90
2851;DHT22;1433;49.976;8.342;2023-12-20T04:12:28;5.90;99.90
2851;DHT22;1433;49.976;8.342;2023-12-20T04:14:54;5.90;99.90
2851;DHT22;1433;49.976;8.342;2023-12-20T04:17:20;6.00;99.90
2851;DHT22;1433;49.976;8.342;2023-12-20T04:19:49;6.00;99.90
2851;DHT22;1433;49.976;8.342;2023-12-20T04:22:16;6.00;99.90
2851;DHT22;1433;49.976;8.342;2023-12-20T04:24:42;6.10;99.90
2851;DHT22;1433;49.976;8.342;2023-12-20T04:27:09;6.10;99.90
2851;DHT22;1433;49.976;8.342;2023-12-20T04:29:35;6.00;99.90
2851;DHT22;1433;49.976;8.342;2023-12-20T04:32:01;6.00;99.90
2851;DHT22;1433;49.976;8.342;2023-12-20T04:34:27;5.90;99.90
2851;DHT22;1433;49.976;8.342;2023-12-20T04:36:54;5.90;99.90
2851;DHT22;1433;49.976;8.342;2023-12-20T04:39:20;5.80;99.90
2851;DHT22;1433;49.976;8.342;2023-12-20T04:41:46;5.80;99.90
2851;DHT22;1433;49.976;8.342;2023-12-20T04:44:14;5.80;99.90
2851;DHT22;1433;49.976;8.342;2023-12-20T04:46:40;5.70;99.90
2851;DHT22;1433;49.976;8.342;2023-12-20T04:49:06;5.70;99.90
2851;DHT22;1433;49.976;8.342;2023-12-20T04:51:33;5.70;99.90
2851;DHT22;1433;49.976;8.342;2023-12-20T04:54:01;5.90;99.90
2851;DHT22;1433;49.976;8.342;2023-12-20T04:56:27;5.90;99.90
2851;DHT22;1433;49.976;8.342;2023-12-20T04:58:53;5.90;99.90
2851;DHT22;1433;49.976;8.342;2023-12-20T05:01:19;6.00;99.90
2851;DHT22;1433;49.976;8.342;2023-12-20T05:03:46;5.90;99.90
2851;DHT22;1433;49.976;8.342;2023-12-20T05:06:12;5.90;99.90
2851;DHT22;1433;49.976;8.342;2023-12-20T05:08:39;5.90;99.90
2851;DHT22;1433;49.976;8.342;2023-12-20T05:11:05;5.90;99.90
2851;DHT22;1433;49.976;8.342;2023-12-20T05:13:31;5.90;99.90
2851;DHT22;1433;49.976;8.342;2023-12-20T05:15:57;5.90;99.90
2851;DHT22;1433;49.976;8.342;2023-12-20T05:18:23;5.90;99.90
2851;DHT22;1433;49.976;8.342;2023-12-20T05:20:50;5.80;99.90
2851;DHT22;1433;49.976;8.342;2023-12-20T05:23:17;5.80;99.90
2851;DHT22;1433;49.976;8.342;2023-12-20T05:25:44;5.70;99.90
2851;DHT22;1433;49.976;8.342;2023-12-20T05:28:10;5.60;99.90
2851;DHT22;1433;49.976;8.342;2023-12-20T05:30:36;5.60;99.90
2851;DHT22;1433;49.976;8.342;2023-12-20T05:33:03;5.60;99.90
2851;DHT22;1433;49.976;8.342;2023-12-20T05:35:29;5.60;99.90
2851;DHT22;1433;49.976;8.342;2023-12-20T05:37:55;5.60;99.90
2851;DHT22;1433;49.976;8.342;2023-12-20T05:40:22;5.60;99.90
2851;DHT22;1433;49.976;8.342;2023-12-20T05:42:48;5.60;99.90
2851;DHT22;1433;49.976;8.342;2023-12-20T05:45:14;5.60;99.90
2851;DHT22;1433;49.976;8.342;2023-12-20T05:47:40;5.60;99.90
2851;DHT22;1433;49.976;8.342;2023-12-20T05:50:07;5.50;99.90
2851;DHT22;1433;49.976;8.342;2023-12-20T05:52:33;5.50;99.90
2851;DHT22;1433;49.976;8.342;2023-12-20T05:54:59;5.50;99.90
2851;DHT22;1433;49.976;8.342;2023-12-20T05:57:27;5.60;99.90
2851;DHT22;1433;49.976;8.342;2023-12-20T05:59:53;5.50;99.90
2851;DHT22;1433;49.976;8.342;2023-12-20T06:02:19;5.50;99.90
2851;DHT22;1433;49.976;8.342;2023-12-20T06:04:45;5.50;99.90
2851;DHT22;1433;49.976;8.342;2023-12-20T06:07:12;5.50;99.90
2851;DHT22;1433;49.976;8.342;2023-12-20T06:09:39;5.40;99.90
2851;DHT22;1433;49.976;8.342;2023-12-20T06:12:06;5.40;99.90
2851;DHT22;1433;49.976;8.342;2023-12-20T06:14:32;5.40;99.90
2851;DHT22;1433;49.976;8.342;2023-12-20T06:16:58;5.40;99.90
2851;DHT22;1433;49.976;8.342;2023-12-20T06:19:24;5.30;99.90
2851;DHT22;1433;49.976;8.342;2023-12-20T06:21:51;5.30;99.90
2851;DHT22;1433;49.976;8.342;2023-12-20T06:24:17;5.30;99.90
2851;DHT22;1433;49.976;8.342;2023-12-20T06:26:43;5.20;99.90
2851;DHT22;1433;49.976;8.342;2023-12-20T06:29:09;5.10;99.90
2851;DHT22;1433;49.976;8.342;2023-12-20T06:31:35;5.10;99.90
2851;DHT22;1433;49.976;8.342;2023-12-20T06:34:01;5.00;99.90
2851;DHT22;1433;49.976;8.342;2023-12-20T06:36:28;5.10;99.90
2851;DHT22;1433;49.976;8.342;2023-12-20T06:38:54;5.00;99.90
2851;DHT22;1433;49.976;8.342;2023-12-20T06:41:20;5.00;99.90
2851;DHT22;1433;49.976;8.342;2023-12-20T06:43:46;5.10;99.90
2851;DHT22;1433;49.976;8.342;2023-12-20T06:46:13;5.00;99.90
2851;DHT22;1433;49.976;8.342;2023-12-20T06:48:39;5.00;99.90
2851;DHT22;1433;49.976;8.342;2023-12-20T06:51:06;5.00;99.90
2851;DHT22;1433;49.976;8.342;2023-12-20T06:53:32;5.00;99.90
2851;DHT22;1433;49.976;8.342;2023-12-20T06:55:58;5.00;99.90
2851;DHT22;1433;49.976;8.342;2023-12-20T06:58:25;5.10;99.90
2851;DHT22;1433;49.976;8.342;2023-12-20T07:00:51;5.00;99.90
2851;DHT22;1433;49.976;8.342;2023-12-20T07:03:20;5.00;99.90
2851;DHT22;1433;49.976;8.342;2023-12-20T07:05:46;4.90;99.90
2851;DHT22;1433;49.976;8.342;2023-12-20T07:08:12;4.90;99.90
2851;DHT22;1433;49.976;8.342;2023-12-20T07:10:40;4.80;99.90
2851;DHT22;1433;49.976;8.342;2023-12-20T07:13:06;4.70;99.90
2851;DHT22;1433;49.976;8.342;2023-12-20T07:15:32;4.70;99.90
2851;DHT22;1433;49.976;8.342;2023-12-20T07:17:58;4.70;99.90
2851;DHT22;1433;49.976;8.342;2023-12-20T07:20:26;4.70;99.90
2851;DHT22;1433;49.976;8.342;2023-12-20T07:22:52;4.70;99.90
2851;DHT22;1433;49.976;8.342;2023-12-20T07:25:18;4.80;99.90
2851;DHT22;1433;49.976;8.342;2023-12-20T07:27:46;4.80;99.90
2851;DHT22;1433;49.976;8.342;2023-12-20T07:30:12;4.90;99.90
2851;DHT22;1433;49.976;8.342;2023-12-20T07:32:40;5.00;99.90
2851;DHT22;1433;49.976;8.342;2023-12-20T07:35:07;5.00;99.90
2851;DHT22;1433;49.976;8.342;2023-12-20T07:37:34;5.10;99.90
2851;DHT22;1433;49.976;8.342;2023-12-20T07:40:03;5.20;99.90
2851;DHT22;1433;49.976;8.342;2023-12-20T07:42:29;5.20;99.90
2851;DHT22;1433;49.976;8.342;2023-12-20T07:44:55;5.20;99.90
2851;DHT22;1433;49.976;8.342;2023-12-20T07:47:22;5.30;99.90
2851;DHT22;1433;49.976;8.342;2023-12-20T07:49:50;5.20;99.90
2851;DHT22;1433;49.976;8.342;2023-12-20T07:52:18;5.20;99.90
2851;DHT22;1433;49.976;8.342;2023-12-20T07:54:45;5.20;99.90
2851;DHT22;1433;49.976;8.342;2023-12-20T07:57:12;5.20;99.90
2851;DHT22;1433;49.976;8.342;2023-12-20T07:59:38;5.30;99.90
2851;DHT22;1433;49.976;8.342;2023-12-20T08:02:04;5.30;99.90
2851;DHT22;1433;49.976;8.342;2023-12-20T08:04:30;5.40;99.90
2851;DHT22;1433;49.976;8.342;2023-12-20T08:06:56;5.40;99.90
2851;DHT22;1433;49.976;8.342;2023-12-20T08:09:23;5.40;99.90
2851;DHT22;1433;49.976;8.342;2023-12-20T08:11:50;5.40;99.90
2851;DHT22;1433;49.976;8.342;2023-12-20T08:14:16;5.40;99.90
2851;DHT22;1433;49.976;8.342;2023-12-20T08:16:42;5.50;99.90
2851;DHT22;1433;49.976;8.342;2023-12-20T08:19:08;5.50;99.90
2851;DHT22;1433;49.976;8.342;2023-12-20T08:21:34;5.60;99.90
2851;DHT22;1433;49.976;8.342;2023-12-20T08:24:00;5.60;99.90
2851;DHT22;1433;49.976;8.342;2023-12-20T08:26:27;5.70;99.90
2851;DHT22;1433;49.976;8.342;2023-12-20T08:28:53;5.70;99.90
2851;DHT22;1433;49.976;8.342;2023-12-20T08:31:19;5.80;99.90
2851;DHT22;1433;49.976;8.342;2023-12-20T08:33:46;5.80;99.90
2851;DHT22;1433;49.976;8.342;2023-12-20T08:36:13;5.80;99.90
2851;DHT22;1433;49.976;8.342;2023-12-20T08:38:40;5.90;99.90
2851;DHT22;1433;49.976;8.342;2023-12-20T08:41:07;6.00;99.90
2851;DHT22;1433;49.976;8.342;2023-12-20T08:43:36;6.00;99.90
2851;DHT22;1433;49.976;8.342;2023-12-20T08:46:02;6.10;99.90
2851;DHT22;1433;49.976;8.342;2023-12-20T08:48:29;6.10;99.90
2851;DHT22;1433;49.976;8.342;2023-12-20T08:50:55;6.10;99.90
2851;DHT22;1433;49.976;8.342;2023-12-20T08:53:21;6.10;99.90
2851;DHT22;1433;49.976;8.342;2023-12-20T08:55:47;6.20;99.90
2851;DHT22;1433;49.976;8.342;2023-12-20T08:58:14;6.20;99.90
2851;DHT22;1433;49.976;8.342;2023-12-20T09:00:40;6.30;99.90
2851;DHT22;1433;49.976;8.342;2023-12-20T09:03:06;6.30;99.90
2851;DHT22;1433;49.976;8.342;2023-12-20T09:05:33;6.30;99.90
2851;DHT22;1433;49.976;8.342;2023-12-20T09:07:59;6.30;99.90
2851;DHT22;1433;49.976;8.342;2023-12-20T09:10:25;6.30;99.90
2851;DHT22;1433;49.976;8.342;2023-12-20T09:12:52;6.30;99.90
2851;DHT22;1433;49.976;8.342;2023-12-20T09:15:23;6.30;99.90
2851;DHT22;1433;49.976;8.342;2023-12-20T09:17:50;6.30;99.90
2851;DHT22;1433;49.976;8.342;2023-12-20T09:20:16;6.30;99.90
2851;DHT22;1433;49.976;8.342;2023-12-20T09:22:42;6.40;99.90
2851;DHT22;1433;49.976;8.342;2023-12-20T09:25:10;6.50;99.90
2851;DHT22;1433;49.976;8.342;2023-12-20T09:27:37;6.50;99.90
2851;DHT22;1433;49.976;8.342;2023-12-20T09:30:06;6.50;99.90
2851;DHT22;1433;49.976;8.342;2023-12-20T09:32:33;6.50;99.90
2851;DHT22;1433;49.976;8.342;2023-12-20T09:35:00;6.60;99.90
2851;DHT22;1433;49.976;8.342;2023-12-20T09:37:27;6.60;99.90
2851;DHT22;1433;49.976;8.342;2023-12-20T09:39:54;6.70;99.90
2851;DHT22;1433;49.976;8.342;2023-12-20T09:42:39;6.70;99.90
2851;DHT22;1433;49.976;8.342;2023-12-20T09:45:08;6.80;99.90
2851;DHT22;1433;49.976;8.342;2023-12-20T09:47:35;6.80;99.90
2851;DHT22;1433;49.976;8.342;2023-12-20T09:50:02;6.80;99.90
2851;DHT22;1433;49.976;8.342;2023-12-20T09:52:29;6.90;99.90
2851;DHT22;1433;49.976;8.342;2023-12-20T09:54:56;7.00;99.90
2851;DHT22;1433;49.976;8.342;2023-12-20T09:57:23;7.00;99.90
2851;DHT22;1433;49.976;8.342;2023-12-20T09:59:50;7.10;99.90
2851;DHT22;1433;49.976;8.342;2023-12-20T10:02:17;7.20;99.90
2851;DHT22;1433;49.976;8.342;2023-12-20T10:04:48;7.30;99.90
2851;DHT22;1433;49.976;8.342;2023-12-20T10:07:15;7.20;99.90
2851;DHT22;1433;49.976;8.342;2023-12-20T10:09:42;7.30;99.90
2851;DHT22;1433;49.976;8.342;2023-12-20T10:12:08;7.40;99.90
2851;DHT22;1433;49.976;8.342;2023-12-20T10:14:35;7.40;99.90
2851;DHT22;1433;49.976;8.342;2023-12-20T10:17:05;7.50;99.90
2851;DHT22;1433;49.976;8.342;2023-12-20T10:19:32;7.50;99.90
2851;DHT22;1433;49.976;8.342;2023-12-20T10:21:59;7.60;99.90
2851;DHT22;1433;49.976;8.342;2023-12-20T10:24:28;7.50;99.90
2851;DHT22;1433;49.976;8.342;2023-12-20T10:27:03;7.60;99.90
2851;DHT22;1433;49.976;8.342;2023-12-20T10:29:34;7.50;99.90
2851;DHT22;1433;49.976;8.342;2023-12-20T10:34:54;7.50;99.90
2851;DHT22;1433;49.976;8.342;2023-12-20T10:37:20;7.60;99.90
2851;DHT22;1433;49.976;8.342;2023-12-20T10:39:52;7.70;99.90
2851;DHT22;1433;49.976;8.342;2023-12-20T10:42:28;7.80;99.90
2851;DHT22;1433;49.976;8.342;2023-12-20T10:44:56;7.80;99.90
2851;DHT22;1433;49.976;8.342;2023-12-20T10:47:24;8.00;99.90
2851;DHT22;1433;49.976;8.342;2023-12-20T10:49:52;8.00;99.90
2851;DHT22;1433;49.976;8.342;2023-12-20T10:52:19;7.90;99.90
2851;DHT22;1433;49.976;8.342;2023-12-20T10:54:46;7.90;99.90
2851;DHT22;1433;49.976;8.342;2023-12-20T10:57:12;8.10;99.90
2851;DHT22;1433;49.976;8.342;2023-12-20T10:59:39;8.20;99.90
2851;DHT22;1433;49.976;8.342;2023-12-20T11:02:05;8.10;99.90
2851;DHT22;1433;49.976;8.342;2023-12-20T11:04:47;8.30;99.90
2851;DHT22;1433;49.976;8.342;2023-12-20T11:07:17;8.30;99.90
2851;DHT22;1433;49.976;8.342;2023-12-20T11:09:47;8.50;99.90
2851;DHT22;1433;49.976;8.342;2023-12-20T11:12:20;8.50;99.90
2851;DHT22;1433;49.976;8.342;2023-12-20T11:14:52;8.60;99.90
2851;DHT22;1433;49.976;8.342;2023-12-20T11:17:21;8.70;99.90
2851;DHT22;1433;49.976;8.342;2023-12-20T11:22:26;8.90;99.90
2851;DHT22;1433;49.976;8.342;2023-12-20T11:24:53;9.00;99.90
2851;DHT22;1433;49.976;8.342;2023-12-20T11:27:20;8.80;99.90
2851;DHT22;1433;49.976;8.342;2023-12-20T11:29:56;8.90;99.90
2851;DHT22;1433;49.976;8.342;2023-12-20T11:32:27;9.00;99.90
2851;DHT22;1433;49.976;8.342;2023-12-20T11:34:59;9.10;99.90
2851;DHT22;1433;49.976;8.342;2023-12-20T11:37:37;9.10;99.90
2851;DHT22;1433;49.976;8.342;2023-12-20T11:40:08;9.20;99.90
2851;DHT22;1433;49.976;8.342;2023-12-20T11:45:14;9.20;99.90
2851;DHT22;1433;49.976;8.342;2023-12-20T11:47:37;9.10;99.90
2851;DHT22;1433;49.976;8.342;2023-12-20T11:50:04;8.80;99.90
2851;DHT22;1433;49.976;8.342;2023-12-20T11:52:31;8.70;99.90
2851;DHT22;1433;49.976;8.342;2023-12-20T11:54:57;8.70;99.90
2851;DHT22;1433;49.976;8.342;2023-12-20T11:57:24;8.70;99.90
2851;DHT22;1433;49.976;8.342;2023-12-20T11:59:50;8.60;99.90
2851;DHT22;1433;49.976;8.342;2023-12-20T12:02:16;8.50;99.90
2851;DHT22;1433;49.976;8.342;2023-12-20T12:04:43;8.40;99.90
2851;DHT22;1433;49.976;8.342;2023-12-20T12:07:09;8.40;99.90
2851;DHT22;1433;49.976;8.342;2023-12-20T12:09:35;8.30;99.90
2851;DHT22;1433;49.976;8.342;2023-12-20T12:12:01;8.30;99.90
2851;DHT22;1433;49.976;8.342;2023-12-20T12:14:27;8.60;99.90
2851;DHT22;1433;49.976;8.342;2023-12-20T12:16:54;9.00;99.90
2851;DHT22;1433;49.976;8.342;2023-12-20T12:19:24;9.50;99.90
2851;DHT22;1433;49.976;8.342;2023-12-20T12:21:51;9.60;99.90
2851;DHT22;1433;49.976;8.342;2023-12-20T12:24:20;9.30;99.90
2851;DHT22;1433;49.976;8.342;2023-12-20T12:26:51;9.00;99.90
2851;DHT22;1433;49.976;8.342;2023-12-20T12:29:17;8.80;99.90
2851;DHT22;1433;49.976;8.342;2023-12-20T12:31:44;9.00;99.90
2851;DHT22;1433;49.976;8.342;2023-12-20T12:34:10;9.40;99.90
2851;DHT22;1433;49.976;8.342;2023-12-20T12:36:36;9.60;8.90
2851;DHT22;1433;49.976;8.342;2023-12-20T12:39:03;10.00;99.90
2851;DHT22;1433;49.976;8.342;2023-12-20T12:41:32;10.20;99.90
2851;DHT22;1433;49.976;8.342;2023-12-20T12:43:58;10.20;99.90
2851;DHT22;1433;49.976;8.342;2023-12-20T12:46:24;10.00;99.90
2851;DHT22;1433;49.976;8.342;2023-12-20T12:48:53;9.90;97.00
2851;DHT22;1433;49.976;8.342;2023-12-20T12:51:19;9.60;99.90
2851;DHT22;1433;49.976;8.342;2023-12-20T12:53:45;9.30;99.90
2851;DHT22;1433;49.976;8.342;2023-12-20T12:56:12;9.40;99.90
2851;DHT22;1433;49.976;8.342;2023-12-20T12:58:39;9.40;99.90
2851;DHT22;1433;49.976;8.342;2023-12-20T13:01:05;9.70;99.90
2851;DHT22;1433;49.976;8.342;2023-12-20T13:03:31;9.80;99.90
2851;DHT22;1433;49.976;8.342;2023-12-20T13:05:58;9.70;99.90
2851;DHT22;1433;49.976;8.342;2023-12-20T13:08:24;9.30;99.90
2851;DHT22;1433;49.976;8.342;2023-12-20T13:10:51;9.30;99.90
2851;DHT22;1433;49.976;8.342;2023-12-20T13:13:17;9.20;99.90
2851;DHT22;1433;49.976;8.342;2023-12-20T13:15:43;9.30;99.90
2851;DHT22;1433;49.976;8.342;2023-12-20T13:18:15;9.20;99.90
2851;DHT22;1433;49.976;8.342;2023-12-20T13:20:41;9.10;99.90
2851;DHT22;1433;49.976;8.342;2023-12-20T13:23:07;9.20;99.90
2851;DHT22;1433;49.976;8.342;2023-12-20T13:25:33;9.30;99.90
2851;DHT22;1433;49.976;8.342;2023-12-20T13:28:00;9.40;99.90
2851;DHT22;1433;49.976;8.342;2023-12-20T13:30:26;9.40;99.90
2851;DHT22;1433;49.976;8.342;2023-12-20T13:32:52;9.40;99.90
2851;DHT22;1433;49.976;8.342;2023-12-20T13:35:18;9.40;99.90
2851;DHT22;1433;49.976;8.342;2023-12-20T13:37:44;9.40;99.90
2851;DHT22;1433;49.976;8.342;2023-12-20T13:40:11;9.40;99.90
2851;DHT22;1433;49.976;8.342;2023-12-20T13:42:39;9.30;99.90
2851;DHT22;1433;49.976;8.342;2023-12-20T13:45:06;9.20;99.90
2851;DHT22;1433;49.976;8.342;2023-12-20T13:47:33;9.50;99.90
2851;DHT22;1433;49.976;8.342;2023-12-20T13:49:59;9.50;99.90
2851;DHT22;1433;49.976;8.342;2023-12-20T13:52:25;9.50;99.90
2851;DHT22;1433;49.976;8.342;2023-12-20T13:54:51;9.40;99.90
2851;DHT22;1433;49.976;8.342;2023-12-20T13:57:18;9.10;99.90
2851;DHT22;1433;49.976;8.342;2023-12-20T13:59:44;9.10;99.90
2851;DHT22;1433;49.976;8.342;2023-12-20T14:02:11;8.90;99.90
2851;DHT22;1433;49.976;8.342;2023-12-20T14:04:37;8.80;99.90
2851;DHT22;1433;49.976;8.342;2023-12-20T14:07:05;8.90;99.90
2851;DHT22;1433;49.976;8.342;2023-12-20T14:09:33;8.70;99.90
2851;DHT22;1433;49.976;8.342;2023-12-20T14:12:00;8.60;99.90
2851;DHT22;1433;49.976;8.342;2023-12-20T14:14:26;8.60;99.90
2851;DHT22;1433;49.976;8.342;2023-12-20T14:16:52;8.70;99.90
2851;DHT22;1433;49.976;8.342;2023-12-20T14:19:18;8.70;99.90
2851;DHT22;1433;49.976;8.342;2023-12-20T14:21:45;8.60;99.90
2851;DHT22;1433;49.976;8.342;2023-12-20T14:24:14;8.50;99.90
2851;DHT22;1433;49.976;8.342;2023-12-20T14:26:41;8.40;99.90
2851;DHT22;1433;49.976;8.342;2023-12-20T14:29:07;8.40;99.90
2851;DHT22;1433;49.976;8.342;2023-12-20T14:31:33;8.40;99.90
2851;DHT22;1433;49.976;8.342;2023-12-20T14:33:59;8.30;99.90
2851;DHT22;1433;49.976;8.342;2023-12-20T14:36:28;8.30;99.90
2851;DHT22;1433;49.976;8.342;2023-12-20T14:38:55;8.30;99.90
2851;DHT22;1433;49.976;8.342;2023-12-20T14:41:22;8.20;99.90
2851;DHT22;1433;49.976;8.342;2023-12-20T14:43:50;8.20;99.90
2851;DHT22;1433;49.976;8.342;2023-12-20T14:46:17;8.20;99.90
2851;DHT22;1433;49.976;8.342;2023-12-20T14:48:44;8.20;99.90
2851;DHT22;1433;49.976;8.342;2023-12-20T14:51:11;8.20;99.90
2851;DHT22;1433;49.976;8.342;2023-12-20T14:53:39;8.10;99.90
2851;DHT22;1433;49.976;8.342;2023-12-20T14:56:05;8.00;99.90
2851;DHT22;1433;49.976;8.342;2023-12-20T14:58:32;8.00;99.90
2851;DHT22;1433;49.976;8.342;2023-12-20T15:00:58;7.90;99.90
2851;DHT22;1433;49.976;8.342;2023-12-20T15:03:24;7.90;99.90
2851;DHT22;1433;49.976;8.342;2023-12-20T15:05:50;7.90;99.90
2851;DHT22;1433;49.976;8.342;2023-12-20T15:08:16;7.80;99.90
2851;DHT22;1433;49.976;8.342;2023-12-20T15:10:43;7.80;99.90
2851;DHT22;1433;49.976;8.342;2023-12-20T15:13:09;7.80;99.90
2851;DHT22;1433;49.976;8.342;2023-12-20T15:15:35;7.70;99.90
2851;DHT22;1433;49.976;8.342;2023-12-20T15:18:01;7.70;99.90
2851;DHT22;1433;49.976;8.342;2023-12-20T15:20:29;7.70;99.90
2851;DHT22;1433;49.976;8.342;2023-12-20T15:22:55;7.60;99.90
2851;DHT22;1433;49.976;8.342;2023-12-20T15:25:23;7.60;99.90
2851;DHT22;1433;49.976;8.342;2023-12-20T15:27:49;7.60;99.90
2851;DHT22;1433;49.976;8.342;2023-12-20T15:30:19;7.60;99.90
2851;DHT22;1433;49.976;8.342;2023-12-20T15:32:45;7.60;99.90
2851;DHT22;1433;49.976;8.342;2023-12-20T15:35:11;7.60;99.90
2851;DHT22;1433;49.976;8.342;2023-12-20T15:37:38;7.60;99.90
2851;DHT22;1433;49.976;8.342;2023-12-20T15:40:07;7.60;99.90
2851;DHT22;1433;49.976;8.342;2023-12-20T15:42:37;7.50;99.90
2851;DHT22;1433;49.976;8.342;2023-12-20T15:45:05;7.50;99.90
2851;DHT22;1433;49.976;8.342;2023-12-20T15:47:32;7.50;99.90
2851;DHT22;1433;49.976;8.342;2023-12-20T15:49:58;7.50;99.90
2851;DHT22;1433;49.976;8.342;2023-12-20T15:52:24;7.40;99.90
2851;DHT22;1433;49.976;8.342;2023-12-20T15:54:50;7.40;99.90
2851;DHT22;1433;49.976;8.342;2023-12-20T15:57:16;7.40;99.90
2851;DHT22;1433;49.976;8.342;2023-12-20T15:59:43;7.40;99.90
2851;DHT22;1433;49.976;8.342;2023-12-20T16:02:10;7.40;99.90
2851;DHT22;1433;49.976;8.342;2023-12-20T16:04:36;7.40;99.90
2851;DHT22;1433;49.976;8.342;2023-12-20T16:07:02;7.40;99.90
2851;DHT22;1433;49.976;8.342;2023-12-20T16:09:29;7.40;99.90
2851;DHT22;1433;49.976;8.342;2023-12-20T16:11:55;7.30;99.90
2851;DHT22;1433;49.976;8.342;2023-12-20T16:14:21;7.30;99.90
2851;DHT22;1433;49.976;8.342;2023-12-20T16:16:47;7.30;99.90
2851;DHT22;1433;49.976;8.342;2023-12-20T16:19:14;7.30;99.90
2851;DHT22;1433;49.976;8.342;2023-12-20T16:21:40;7.30;99.90